sensor_id;sensor_type;location;lat;lon;timestamp;pressure;altitude;pressure_sealevel;temperature;humidity
70902;BME280;58548;47.210;8.618;2023-04-25T00:02:15;93510.47;;;17.53;28.07
70902;BME280;58548;47.210;8.618;2023-04-25T00:04:43;93605.69;;;18.13;28.01
70902;BME280;58548;47.210;8.618;2023-04-25T00:07:09;93528.25;;;17.62;27.31
70902;BME280;58548;47.210;8.618;2023-04-25T00:09:38;93605.41;;;18.09;27.53
70902;BME280;58548;47.210;8.618;2023-04-25T00:12:06;93535.69;;;17.66;27.83
70902;BME280;58548;47.210;8.618;2023-04-25T00:14:35;93510.16;;;17.49;27.86
70902;BME280;58548;47.210;8.618;2023-04-25T00:17:01;93503.78;;;17.45;27.68
70902;BME280;58548;47.210;8.618;2023-04-25T00:19:28;93583.78;;;17.90;27.95
70902;BME280;58548;47.210;8.618;2023-04-25T00:21:57;93601.03;;;17.98;27.74
70902;BME280;58548;47.210;8.618;2023-04-25T00:24:25;93506.19;;;17.46;28.00
70902;BME280;58548;47.210;8.618;2023-04-25T00:26:51;93597.38;;;17.99;28.36
70902;BME280;58548;47.210;8.618;2023-04-25T00:29:17;93574.00;;;17.90;27.60
70902;BME280;58548;47.210;8.618;2023-04-25T00:31:45;93602.41;;;18.00;27.73
70902;BME280;58548;47.210;8.618;2023-04-25T00:34:11;93592.50;;;17.90;28.34
70902;BME280;58548;47.210;8.618;2023-04-25T00:36:37;93590.63;;;17.91;28.27
70902;BME280;58548;47.210;8.618;2023-04-25T00:39:03;93478.75;;;17.03;28.27
70902;BME280;58548;47.210;8.618;2023-04-25T00:41:30;93584.97;;;17.77;27.93
70902;BME280;58548;47.210;8.618;2023-04-25T00:43:57;93487.63;;;17.19;28.14
70902;BME280;58548;47.210;8.618;2023-04-25T00:46:26;93570.72;;;17.78;28.34
70902;BME280;58548;47.210;8.618;2023-04-25T00:48:52;93556.81;;;17.66;28.67
70902;BME280;58548;47.210;8.618;2023-04-25T00:51:25;93577.25;;;17.75;28.46
70902;BME280;58548;47.210;8.618;2023-04-25T00:53:53;93564.31;;;17.74;28.18
70902;BME280;58548;47.210;8.618;2023-04-25T00:56:19;93395.66;;;16.61;28.51
70902;BME280;58548;47.210;8.618;2023-04-25T00:58:50;93586.00;;;17.76;28.94
70902;BME280;58548;47.210;8.618;2023-04-25T01:01:23;93565.19;;;17.57;28.36
70902;BME280;58548;47.210;8.618;2023-04-25T01:03:50;93588.03;;;17.69;28.76
70902;BME280;58548;47.210;8.618;2023-04-25T01:06:18;93482.19;;;17.03;28.73
70902;BME280;58548;47.210;8.618;2023-04-25T01:08:47;93579.06;;;17.70;29.01
70902;BME280;58548;47.210;8.618;2023-04-25T01:11:15;93500.06;;;17.18;28.96
70902;BME280;58548;47.210;8.618;2023-04-25T01:13:41;93476.28;;;16.96;29.04
70902;BME280;58548;47.210;8.618;2023-04-25T01:16:09;93476.59;;;17.00;28.87
70902;BME280;58548;47.210;8.618;2023-04-25T01:18:44;93572.41;;;17.45;28.84
70902;BME280;58548;47.210;8.618;2023-04-25T01:21:12;93533.59;;;17.23;28.34
70902;BME280;58548;47.210;8.618;2023-04-25T01:23:42;93457.59;;;16.81;28.74
70902;BME280;58548;47.210;8.618;2023-04-25T01:26:09;93556.47;;;17.35;28.18
70902;BME280;58548;47.210;8.618;2023-04-25T01:28:37;93458.88;;;16.78;28.51
70902;BME280;58548;47.210;8.618;2023-04-25T01:31:04;93558.81;;;17.53;28.43
70902;BME280;58548;47.210;8.618;2023-04-25T01:33:31;93543.81;;;17.37;28.20
70902;BME280;58548;47.210;8.618;2023-04-25T01:36:00;93549.84;;;17.54;27.94
70902;BME280;58548;47.210;8.618;2023-04-25T01:38:28;93443.44;;;16.87;27.59
70902;BME280;58548;47.210;8.618;2023-04-25T01:40:54;93459.06;;;16.94;27.97
70902;BME280;58548;47.210;8.618;2023-04-25T01:43:26;93553.63;;;17.63;27.62
70902;BME280;58548;47.210;8.618;2023-04-25T01:45:59;93555.59;;;17.73;28.04
70902;BME280;58548;47.210;8.618;2023-04-25T01:48:27;93558.28;;;17.78;27.85
70902;BME280;58548;47.210;8.618;2023-04-25T01:50:53;93519.25;;;17.58;27.41
70902;BME280;58548;47.210;8.618;2023-04-25T01:53:22;93548.00;;;17.77;27.27
70902;BME280;58548;47.210;8.618;2023-04-25T01:55:48;93376.28;;;16.72;27.23
70902;BME280;58548;47.210;8.618;2023-04-25T01:58:14;93533.75;;;17.78;27.66
70902;BME280;58548;47.210;8.618;2023-04-25T02:00:42;93466.13;;;17.27;27.40
70902;BME280;58548;47.210;8.618;2023-04-25T02:03:08;93458.31;;;17.15;27.46
70902;BME280;58548;47.210;8.618;2023-04-25T02:05:37;93554.66;;;17.85;27.93
70902;BME280;58548;47.210;8.618;2023-04-25T02:08:12;93534.66;;;17.67;27.67
70902;BME280;58548;47.210;8.618;2023-04-25T02:10:38;93555.38;;;17.80;28.03
70902;BME280;58548;47.210;8.618;2023-04-25T02:13:03;93384.88;;;16.63;27.67
70902;BME280;58548;47.210;8.618;2023-04-25T02:15:31;93510.28;;;17.37;27.76
70902;BME280;58548;47.210;8.618;2023-04-25T02:17:57;93560.44;;;17.59;27.38
70902;BME280;58548;47.210;8.618;2023-04-25T02:20:27;93454.06;;;16.92;28.47
70902;BME280;58548;47.210;8.618;2023-04-25T02:22:53;93547.00;;;17.39;28.67
70902;BME280;58548;47.210;8.618;2023-04-25T02:25:23;93517.66;;;17.13;28.76
70902;BME280;58548;47.210;8.618;2023-04-25T02:27:49;93546.88;;;17.28;29.14
70902;BME280;58548;47.210;8.618;2023-04-25T02:30:16;93546.06;;;17.28;29.62
70902;BME280;58548;47.210;8.618;2023-04-25T02:32:45;93545.75;;;17.24;29.77
70902;BME280;58548;47.210;8.618;2023-04-25T02:35:11;93428.91;;;16.45;29.57
70902;BME280;58548;47.210;8.618;2023-04-25T02:37:38;93548.03;;;17.15;29.61
70902;BME280;58548;47.210;8.618;2023-04-25T02:40:06;93549.81;;;17.10;30.03
70902;BME280;58548;47.210;8.618;2023-04-25T02:42:32;93519.44;;;16.90;30.16
70902;BME280;58548;47.210;8.618;2023-04-25T02:44:58;93554.91;;;16.99;30.08
70902;BME280;58548;47.210;8.618;2023-04-25T02:47:26;93550.34;;;16.95;30.39
70902;BME280;58548;47.210;8.618;2023-04-25T02:49:54;93517.38;;;16.75;30.13
70902;BME280;58548;47.210;8.618;2023-04-25T02:52:22;93449.75;;;16.30;30.38
70902;BME280;58548;47.210;8.618;2023-04-25T02:54:48;93441.53;;;16.26;30.71
70902;BME280;58548;47.210;8.618;2023-04-25T02:57:14;93457.56;;;16.41;30.98
70902;BME280;58548;47.210;8.618;2023-04-25T02:59:42;93357.56;;;15.78;30.96
70902;BME280;58548;47.210;8.618;2023-04-25T03:02:11;93435.53;;;16.31;30.67
70902;BME280;58548;47.210;8.618;2023-04-25T03:04:37;93532.13;;;16.93;31.00
70902;BME280;58548;47.210;8.618;2023-04-25T03:07:03;93537.50;;;16.98;31.37
70902;BME280;58548;47.210;8.618;2023-04-25T03:09:29;93522.72;;;16.97;31.54
70902;BME280;58548;47.210;8.618;2023-04-25T03:11:57;93526.38;;;16.96;31.96
70902;BME280;58548;47.210;8.618;2023-04-25T03:14:25;93451.41;;;16.53;31.67
70902;BME280;58548;47.210;8.618;2023-04-25T03:16:51;93421.25;;;16.43;31.75
70902;BME280;58548;47.210;8.618;2023-04-25T03:19:17;93522.31;;;17.06;32.01
70902;BME280;58548;47.210;8.618;2023-04-25T03:21:44;93514.94;;;17.08;32.32
70902;BME280;58548;47.210;8.618;2023-04-25T03:24:10;93364.44;;;16.13;31.74
70902;BME280;58548;47.210;8.618;2023-04-25T03:26:41;93495.84;;;17.00;31.17
70902;BME280;58548;47.210;8.618;2023-04-25T03:29:08;93469.72;;;16.82;30.16
70902;BME280;58548;47.210;8.618;2023-04-25T03:31:36;93482.59;;;16.95;29.50
70902;BME280;58548;47.210;8.618;2023-04-25T03:34:04;93422.00;;;16.61;29.84
70902;BME280;58548;47.210;8.618;2023-04-25T03:36:30;93419.28;;;16.56;30.34
70902;BME280;58548;47.210;8.618;2023-04-25T03:38:56;93511.16;;;17.21;30.90
70902;BME280;58548;47.210;8.618;2023-04-25T03:41:22;93462.94;;;16.86;31.16
70902;BME280;58548;47.210;8.618;2023-04-25T03:43:48;93511.47;;;17.24;31.62
70902;BME280;58548;47.210;8.618;2023-04-25T03:46:14;93518.34;;;17.25;31.65
70902;BME280;58548;47.210;8.618;2023-04-25T03:48:41;93507.66;;;17.15;31.18
70902;BME280;58548;47.210;8.618;2023-04-25T03:51:07;93510.97;;;17.27;31.20
70902;BME280;58548;47.210;8.618;2023-04-25T03:53:33;93416.56;;;16.68;31.15
70902;BME280;58548;47.210;8.618;2023-04-25T03:56:01;93517.44;;;17.37;31.45
70902;BME280;58548;47.210;8.618;2023-04-25T03:58:27;93397.25;;;16.62;31.63
70902;BME280;58548;47.210;8.618;2023-04-25T04:00:56;93476.53;;;17.17;31.37
70902;BME280;58548;47.210;8.618;2023-04-25T04:03:24;93412.69;;;16.76;31.88
70902;BME280;58548;47.210;8.618;2023-04-25T04:05:50;93514.13;;;17.46;31.33
70902;BME280;58548;47.210;8.618;2023-04-25T04:08:18;93515.16;;;17.45;31.23
70902;BME280;58548;47.210;8.618;2023-04-25T04:10:46;93476.84;;;17.21;31.09
70902;BME280;58548;47.210;8.618;2023-04-25T04:13:15;93515.31;;;17.39;31.08
70902;BME280;58548;47.210;8.618;2023-04-25T04:15:41;93403.63;;;16.66;31.28
70902;BME280;58548;47.210;8.618;2023-04-25T04:18:09;93383.38;;;16.50;31.53
70902;BME280;58548;47.210;8.618;2023-04-25T04:20:36;93409.69;;;16.67;31.70
70902;BME280;58548;47.210;8.618;2023-04-25T04:23:04;93500.97;;;17.29;31.48
70902;BME280;58548;47.210;8.618;2023-04-25T04:25:31;93503.53;;;17.24;31.21
70902;BME280;58548;47.210;8.618;2023-04-25T04:28:00;93417.91;;;16.70;31.25
70902;BME280;58548;47.210;8.618;2023-04-25T04:30:28;93510.47;;;17.30;32.00
70902;BME280;58548;47.210;8.618;2023-04-25T04:33:04;93473.22;;;17.05;31.95
70902;BME280;58548;47.210;8.618;2023-04-25T04:35:35;93515.22;;;17.28;31.87
70902;BME280;58548;47.210;8.618;2023-04-25T04:38:01;93502.19;;;17.22;32.27
70902;BME280;58548;47.210;8.618;2023-04-25T04:40:27;93516.88;;;17.35;32.17
70902;BME280;58548;47.210;8.618;2023-04-25T04:42:53;93528.00;;;17.37;31.92
70902;BME280;58548;47.210;8.618;2023-04-25T04:45:22;93514.53;;;17.38;32.22
70902;BME280;58548;47.210;8.618;2023-04-25T04:47:47;93519.50;;;17.35;32.30
70902;BME280;58548;47.210;8.618;2023-04-25T04:50:14;93520.28;;;17.35;32.25
70902;BME280;58548;47.210;8.618;2023-04-25T04:52:40;93482.63;;;17.17;32.16
70902;BME280;58548;47.210;8.618;2023-04-25T04:55:08;93401.53;;;16.68;32.44
70902;BME280;58548;47.210;8.618;2023-04-25T04:57:36;93497.78;;;17.27;31.75
70902;BME280;58548;47.210;8.618;2023-04-25T05:00:07;93506.00;;;17.31;31.22
70902;BME280;58548;47.210;8.618;2023-04-25T05:02:37;93448.47;;;16.88;31.50
70902;BME280;58548;47.210;8.618;2023-04-25T05:05:05;93426.38;;;16.72;30.99
70902;BME280;58548;47.210;8.618;2023-04-25T05:07:33;93448.94;;;16.85;31.40
70902;BME280;58548;47.210;8.618;2023-04-25T05:09:59;93477.88;;;16.97;31.29
70902;BME280;58548;47.210;8.618;2023-04-25T05:12:25;93401.75;;;16.45;31.06
70902;BME280;58548;47.210;8.618;2023-04-25T05:14:56;93519.75;;;17.11;30.64
70902;BME280;58548;47.210;8.618;2023-04-25T05:17:26;93518.16;;;17.10;30.30
70902;BME280;58548;47.210;8.618;2023-04-25T05:19:55;93417.56;;;16.45;29.98
70902;BME280;58548;47.210;8.618;2023-04-25T05:22:21;93413.81;;;16.40;29.76
70902;BME280;58548;47.210;8.618;2023-04-25T05:24:47;93413.56;;;16.42;29.95
70902;BME280;58548;47.210;8.618;2023-04-25T05:27:17;93495.78;;;16.95;30.42
70902;BME280;58548;47.210;8.618;2023-04-25T05:29:44;93426.63;;;16.54;30.04
70902;BME280;58548;47.210;8.618;2023-04-25T05:32:10;93512.88;;;17.10;30.29
70902;BME280;58548;47.210;8.618;2023-04-25T05:34:39;93509.97;;;17.11;30.63
70902;BME280;58548;47.210;8.618;2023-04-25T05:37:05;93497.03;;;17.10;30.79
70902;BME280;58548;47.210;8.618;2023-04-25T05:39:31;93503.25;;;17.21;30.15
70902;BME280;58548;47.210;8.618;2023-04-25T05:41:57;93510.97;;;17.27;30.30
70902;BME280;58548;47.210;8.618;2023-04-25T05:44:23;93399.63;;;16.64;30.15
70902;BME280;58548;47.210;8.618;2023-04-25T05:46:49;93468.56;;;17.12;30.28
70902;BME280;58548;47.210;8.618;2023-04-25T05:49:17;93507.47;;;17.44;29.84
70902;BME280;58548;47.210;8.618;2023-04-25T05:51:45;93484.69;;;17.38;30.17
70902;BME280;58548;47.210;8.618;2023-04-25T05:54:11;93410.41;;;17.01;29.94
70902;BME280;58548;47.210;8.618;2023-04-25T05:56:39;93500.31;;;17.67;29.38
70902;BME280;58548;47.210;8.618;2023-04-25T05:59:10;93499.34;;;17.73;29.19
70902;BME280;58548;47.210;8.618;2023-04-25T06:01:36;93497.53;;;17.78;29.38
70902;BME280;58548;47.210;8.618;2023-04-25T06:04:04;93506.63;;;17.88;29.51
70902;BME280;58548;47.210;8.618;2023-04-25T06:06:32;93440.44;;;17.45;29.14
70902;BME280;58548;47.210;8.618;2023-04-25T06:08:58;93351.69;;;16.89;29.44
70902;BME280;58548;47.210;8.618;2023-04-25T06:11:26;93500.59;;;17.92;29.55
70902;BME280;58548;47.210;8.618;2023-04-25T06:13:52;93492.28;;;18.06;29.25
70902;BME280;58548;47.210;8.618;2023-04-25T06:16:18;93511.50;;;18.29;28.96
70902;BME280;58548;47.210;8.618;2023-04-25T06:18:44;93519.53;;;18.39;29.75
70902;BME280;58548;47.210;8.618;2023-04-25T06:21:12;93377.28;;;17.66;28.66
70902;BME280;58548;47.210;8.618;2023-04-25T06:23:40;93477.97;;;18.34;29.07
70902;BME280;58548;47.210;8.618;2023-04-25T06:26:08;93422.50;;;18.02;29.02
70902;BME280;58548;47.210;8.618;2023-04-25T06:28:36;93487.84;;;18.44;28.88
70902;BME280;58548;47.210;8.618;2023-04-25T06:31:05;93514.41;;;18.65;29.19
70902;BME280;58548;47.210;8.618;2023-04-25T06:33:31;93427.81;;;18.07;30.22
70902;BME280;58548;47.210;8.618;2023-04-25T06:35:56;93552.09;;;18.77;30.01
70902;BME280;58548;47.210;8.618;2023-04-25T06:38:22;93546.53;;;18.79;29.68
70902;BME280;58548;47.210;8.618;2023-04-25T06:40:50;93543.66;;;18.80;29.66
70902;BME280;58548;47.210;8.618;2023-04-25T06:43:17;93554.63;;;18.67;31.00
70902;BME280;58548;47.210;8.618;2023-04-25T06:45:45;93563.84;;;18.59;31.16
70902;BME280;58548;47.210;8.618;2023-04-25T06:48:10;93546.59;;;18.51;31.37
70902;BME280;58548;47.210;8.618;2023-04-25T06:50:36;93563.56;;;18.56;31.62
70902;BME280;58548;47.210;8.618;2023-04-25T06:53:02;93571.44;;;18.50;32.03
70902;BME280;58548;47.210;8.618;2023-04-25T06:55:28;93499.66;;;18.04;32.71
70902;BME280;58548;47.210;8.618;2023-04-25T06:57:54;93342.19;;;16.88;32.07
70902;BME280;58548;47.210;8.618;2023-04-25T07:00:24;93503.94;;;17.83;32.12
70902;BME280;58548;47.210;8.618;2023-04-25T07:02:50;93576.94;;;18.16;32.41
70902;BME280;58548;47.210;8.618;2023-04-25T07:05:16;93572.56;;;18.00;32.85
70902;BME280;58548;47.210;8.618;2023-04-25T07:07:42;93536.81;;;17.70;33.15
70902;BME280;58548;47.210;8.618;2023-04-25T07:10:08;93508.16;;;17.34;33.03
70902;BME280;58548;47.210;8.618;2023-04-25T07:12:34;93584.44;;;17.80;32.57
70902;BME280;58548;47.210;8.618;2023-04-25T07:15:06;93579.47;;;17.61;33.16
70902;BME280;58548;47.210;8.618;2023-04-25T07:17:35;93475.81;;;16.82;33.05
70902;BME280;58548;47.210;8.618;2023-04-25T07:20:01;93581.00;;;17.35;33.73
70902;BME280;58548;47.210;8.618;2023-04-25T07:22:29;93584.97;;;16.98;33.83
70902;BME280;58548;47.210;8.618;2023-04-25T07:24:58;93418.91;;;15.79;34.00
70902;BME280;58548;47.210;8.618;2023-04-25T07:27:24;93471.31;;;15.92;34.36
70902;BME280;58548;47.210;8.618;2023-04-25T07:29:50;93482.00;;;16.03;35.01
70902;BME280;58548;47.210;8.618;2023-04-25T07:32:18;93567.38;;;16.53;34.50
70902;BME280;58548;47.210;8.618;2023-04-25T07:34:43;93521.78;;;16.18;35.16
70902;BME280;58548;47.210;8.618;2023-04-25T07:37:12;93478.41;;;15.80;35.25
70902;BME280;58548;47.210;8.618;2023-04-25T07:39:38;93463.81;;;15.72;35.14
70902;BME280;58548;47.210;8.618;2023-04-25T07:42:04;93561.47;;;16.46;35.56
70902;BME280;58548;47.210;8.618;2023-04-25T07:44:31;93477.91;;;15.95;35.22
70902;BME280;58548;47.210;8.618;2023-04-25T07:46:58;93591.19;;;16.58;35.87
70902;BME280;58548;47.210;8.618;2023-04-25T07:49:26;93462.41;;;15.81;35.54
70902;BME280;58548;47.210;8.618;2023-04-25T07:51:52;93497.09;;;16.07;35.23
70902;BME280;58548;47.210;8.618;2023-04-25T07:54:20;93603.97;;;16.66;35.75
70902;BME280;58548;47.210;8.618;2023-04-25T07:56:48;93475.53;;;15.93;35.73
70902;BME280;58548;47.210;8.618;2023-04-25T07:59:14;93605.72;;;16.78;35.64
70902;BME280;58548;47.210;8.618;2023-04-25T08:01:42;93607.59;;;16.77;35.81
70902;BME280;58548;47.210;8.618;2023-04-25T08:04:10;93605.16;;;16.76;35.83
70902;BME280;58548;47.210;8.618;2023-04-25T08:06:38;93605.72;;;16.78;36.00
70902;BME280;58548;47.210;8.618;2023-04-25T08:09:06;93560.91;;;16.43;35.98
70902;BME280;58548;47.210;8.618;2023-04-25T08:11:36;93606.53;;;16.78;35.94
70902;BME280;58548;47.210;8.618;2023-04-25T08:14:05;93616.63;;;16.81;36.06
70902;BME280;58548;47.210;8.618;2023-04-25T08:16:33;93516.25;;;16.20;35.94
70902;BME280;58548;47.210;8.618;2023-04-25T08:18:59;93526.47;;;16.33;36.26
70902;BME280;58548;47.210;8.618;2023-04-25T08:21:27;93629.69;;;17.05;36.32
70902;BME280;58548;47.210;8.618;2023-04-25T08:23:56;93632.28;;;17.22;35.97
70902;BME280;58548;47.210;8.618;2023-04-25T08:26:24;93622.84;;;17.26;35.97
70902;BME280;58548;47.210;8.618;2023-04-25T08:28:51;93569.53;;;17.07;35.94
70902;BME280;58548;47.210;8.618;2023-04-25T08:31:16;93619.94;;;17.45;35.18
70902;BME280;58548;47.210;8.618;2023-04-25T08:33:44;93640.41;;;17.77;35.07
70902;BME280;58548;47.210;8.618;2023-04-25T08:36:11;93535.63;;;17.16;34.87
70902;BME280;58548;47.210;8.618;2023-04-25T08:38:40;93549.59;;;17.33;34.51
70902;BME280;58548;47.210;8.618;2023-04-25T08:41:06;93652.13;;;18.03;34.54
70902;BME280;58548;47.210;8.618;2023-04-25T08:43:33;93648.53;;;18.15;34.84
70902;BME280;58548;47.210;8.618;2023-04-25T08:46:02;93657.91;;;18.28;34.89
70902;BME280;58548;47.210;8.618;2023-04-25T08:48:32;93653.88;;;18.42;35.58
70902;BME280;58548;47.210;8.618;2023-04-25T08:51:02;93664.91;;;18.94;35.25
70902;BME280;58548;47.210;8.618;2023-04-25T08:53:31;93671.22;;;19.58;34.58
70902;BME280;58548;47.210;8.618;2023-04-25T08:56:01;93652.59;;;19.91;33.75
70902;BME280;58548;47.210;8.618;2023-04-25T08:58:32;93657.19;;;20.16;32.68
70902;BME280;58548;47.210;8.618;2023-04-25T09:00:58;93590.34;;;19.93;31.28
70902;BME280;58548;47.210;8.618;2023-04-25T09:03:27;93581.34;;;19.89;31.35
70902;BME280;58548;47.210;8.618;2023-04-25T09:05:53;93668.16;;;20.45;31.18
70902;BME280;58548;47.210;8.618;2023-04-25T09:08:23;93667.09;;;20.46;31.10
70902;BME280;58548;47.210;8.618;2023-04-25T09:10:53;93599.63;;;19.96;31.05
70902;BME280;58548;47.210;8.618;2023-04-25T09:13:31;93686.13;;;20.17;31.11
70902;BME280;58548;47.210;8.618;2023-04-25T09:15:59;93693.47;;;20.05;31.08
70902;BME280;58548;47.210;8.618;2023-04-25T09:18:31;93670.00;;;19.76;30.65
70902;BME280;58548;47.210;8.618;2023-04-25T09:21:10;93667.75;;;19.52;30.67
70902;BME280;58548;47.210;8.618;2023-04-25T09:23:42;93616.72;;;18.92;31.33
70902;BME280;58548;47.210;8.618;2023-04-25T09:26:08;93617.06;;;18.68;31.81
70902;BME280;58548;47.210;8.618;2023-04-25T09:28:35;93627.91;;;18.39;31.70
70902;BME280;58548;47.210;8.618;2023-04-25T09:31:01;93692.69;;;18.64;32.67
70902;BME280;58548;47.210;8.618;2023-04-25T09:33:34;93602.50;;;17.88;32.88
70902;BME280;58548;47.210;8.618;2023-04-25T09:36:06;93625.13;;;17.79;33.79
70902;BME280;58548;47.210;8.618;2023-04-25T09:38:43;93617.81;;;17.64;33.81
70902;BME280;58548;47.210;8.618;2023-04-25T09:41:10;93706.00;;;18.24;33.90
70902;BME280;58548;47.210;8.618;2023-04-25T09:43:37;93691.63;;;17.76;33.74
70902;BME280;58548;47.210;8.618;2023-04-25T09:46:10;93655.63;;;17.13;34.61
70902;BME280;58548;47.210;8.618;2023-04-25T09:48:37;93712.72;;;17.37;34.94
70902;BME280;58548;47.210;8.618;2023-04-25T09:53:43;93636.25;;;16.73;35.63
70902;BME280;58548;47.210;8.618;2023-04-25T09:56:13;93666.78;;;16.86;35.40
70902;BME280;58548;47.210;8.618;2023-04-25T09:58:42;93712.56;;;17.26;35.91
70902;BME280;58548;47.210;8.618;2023-04-25T10:01:11;93733.34;;;17.40;36.22
70902;BME280;58548;47.210;8.618;2023-04-25T10:03:41;93726.16;;;17.35;35.75
70902;BME280;58548;47.210;8.618;2023-04-25T10:06:17;93640.66;;;16.85;36.33
70902;BME280;58548;47.210;8.618;2023-04-25T10:08:49;93762.13;;;17.58;35.67
70902;BME280;58548;47.210;8.618;2023-04-25T10:11:24;93689.06;;;17.08;35.63
70902;BME280;58548;47.210;8.618;2023-04-25T10:13:52;93783.25;;;17.58;35.62
70902;BME280;58548;47.210;8.618;2023-04-25T10:16:21;93712.88;;;17.13;35.41
70902;BME280;58548;47.210;8.618;2023-04-25T10:18:48;93688.53;;;16.94;34.33
70902;BME280;58548;47.210;8.618;2023-04-25T10:21:15;93768.53;;;17.28;33.28
70902;BME280;58548;47.210;8.618;2023-04-25T10:23:47;93656.97;;;16.53;33.97
70902;BME280;58548;47.210;8.618;2023-04-25T10:26:16;93781.47;;;17.30;33.92
70902;BME280;58548;47.210;8.618;2023-04-25T10:28:59;93667.94;;;16.45;34.59
70902;BME280;58548;47.210;8.618;2023-04-25T10:31:27;93773.25;;;17.26;35.24
70902;BME280;58548;47.210;8.618;2023-04-25T10:33:53;93743.91;;;17.23;36.01
70902;BME280;58548;47.210;8.618;2023-04-25T10:36:21;93767.09;;;17.55;36.63
70902;BME280;58548;47.210;8.618;2023-04-25T10:38:50;93756.44;;;17.84;36.89
70902;BME280;58548;47.210;8.618;2023-04-25T10:41:22;93764.66;;;18.21;35.90
70902;BME280;58548;47.210;8.618;2023-04-25T10:43:59;93693.94;;;18.34;35.35
70902;BME280;58548;47.210;8.618;2023-04-25T10:46:29;93771.84;;;19.25;34.21
70902;BME280;58548;47.210;8.618;2023-04-25T10:49:00;93774.00;;;19.61;33.94
70902;BME280;58548;47.210;8.618;2023-04-25T10:53:58;93772.94;;;19.95;33.03
70902;BME280;58548;47.210;8.618;2023-04-25T10:56:27;93765.88;;;20.11;33.17
70902;BME280;58548;47.210;8.618;2023-04-25T10:59:24;93767.31;;;20.34;32.27
70902;BME280;58548;47.210;8.618;2023-04-25T11:01:57;93778.25;;;20.48;31.98
70902;BME280;58548;47.210;8.618;2023-04-25T11:04:24;93778.22;;;20.43;31.97
70902;BME280;58548;47.210;8.618;2023-04-25T11:09:35;93775.69;;;20.69;31.22
70902;BME280;58548;47.210;8.618;2023-04-25T11:12:02;93752.41;;;20.76;31.64
70902;BME280;58548;47.210;8.618;2023-04-25T11:14:28;93756.66;;;20.98;31.81
70902;BME280;58548;47.210;8.618;2023-04-25T11:16:55;93789.13;;;21.41;30.68
70902;BME280;58548;47.210;8.618;2023-04-25T11:19:29;93694.84;;;21.13;29.99
70902;BME280;58548;47.210;8.618;2023-04-25T11:21:59;93697.22;;;21.40;28.58
70902;BME280;58548;47.210;8.618;2023-04-25T11:24:30;93784.91;;;21.92;28.52
70902;BME280;58548;47.210;8.618;2023-04-25T11:27:00;93792.88;;;21.87;28.94
70902;BME280;58548;47.210;8.618;2023-04-25T11:29:35;93785.97;;;21.70;29.30
70902;BME280;58548;47.210;8.618;2023-04-25T11:32:01;93786.47;;;21.46;29.37
70902;BME280;58548;47.210;8.618;2023-04-25T11:34:31;93791.25;;;21.34;30.00
70902;BME280;58548;47.210;8.618;2023-04-25T11:36:59;93784.59;;;21.31;30.42
70902;BME280;58548;47.210;8.618;2023-04-25T11:39:26;93743.94;;;21.05;30.80
70902;BME280;58548;47.210;8.618;2023-04-25T11:41:55;93790.72;;;21.37;30.09
70902;BME280;58548;47.210;8.618;2023-04-25T11:44:23;93754.56;;;21.20;30.32
70902;BME280;58548;47.210;8.618;2023-04-25T11:46:49;93778.50;;;21.36;30.27
70902;BME280;58548;47.210;8.618;2023-04-25T11:49:16;93803.47;;;21.40;30.50
70902;BME280;58548;47.210;8.618;2023-04-25T11:51:46;93742.06;;;20.85;31.01
70902;BME280;58548;47.210;8.618;2023-04-25T11:54:12;93739.03;;;20.60;30.96
70902;BME280;58548;47.210;8.618;2023-04-25T11:56:45;93817.09;;;20.75;30.93
70902;BME280;58548;47.210;8.618;2023-04-25T11:59:14;93736.63;;;19.95;29.11
70902;BME280;58548;47.210;8.618;2023-04-25T12:01:48;93607.03;;;18.70;28.45
70902;BME280;58548;47.210;8.618;2023-04-25T12:04:23;93828.09;;;19.65;29.01
70902;BME280;58548;47.210;8.618;2023-04-25T12:06:54;93782.53;;;19.08;29.33
70902;BME280;58548;47.210;8.618;2023-04-25T12:09:28;93698.06;;;18.24;30.44
70902;BME280;58548;47.210;8.618;2023-04-25T12:11:57;93833.69;;;18.92;30.93
70902;BME280;58548;47.210;8.618;2023-04-25T12:14:28;93837.31;;;18.86;32.11
70902;BME280;58548;47.210;8.618;2023-04-25T12:17:02;93828.84;;;18.83;31.94
70902;BME280;58548;47.210;8.618;2023-04-25T12:19:37;93833.31;;;18.83;32.09
70902;BME280;58548;47.210;8.618;2023-04-25T12:22:20;93837.81;;;18.82;32.80
70902;BME280;58548;47.210;8.618;2023-04-25T12:24:46;93724.84;;;18.33;33.64
70902;BME280;58548;47.210;8.618;2023-04-25T12:27:16;93814.50;;;19.29;31.61
70902;BME280;58548;47.210;8.618;2023-04-25T12:29:51;93838.38;;;19.94;31.62
70902;BME280;58548;47.210;8.618;2023-04-25T12:32:17;93719.28;;;19.77;31.84
70902;BME280;58548;47.210;8.618;2023-04-25T12:34:46;93744.78;;;20.31;30.10
70902;BME280;58548;47.210;8.618;2023-04-25T12:37:14;93845.19;;;21.45;31.44
70902;BME280;58548;47.210;8.618;2023-04-25T12:39:43;93839.66;;;21.88;28.38
70902;BME280;58548;47.210;8.618;2023-04-25T12:42:11;93826.31;;;22.29;28.99
70902;BME280;58548;47.210;8.618;2023-04-25T12:44:42;93831.09;;;22.53;28.16
70902;BME280;58548;47.210;8.618;2023-04-25T12:47:12;93831.63;;;22.50;27.59
70902;BME280;58548;47.210;8.618;2023-04-25T12:49:37;93834.03;;;22.25;27.30
70902;BME280;58548;47.210;8.618;2023-04-25T12:52:06;93746.63;;;21.57;27.76
70902;BME280;58548;47.210;8.618;2023-04-25T12:54:36;93841.00;;;22.11;27.93
70902;BME280;58548;47.210;8.618;2023-04-25T12:57:02;93824.78;;;21.97;27.98
70902;BME280;58548;47.210;8.618;2023-04-25T12:59:28;93768.94;;;21.50;27.89
70902;BME280;58548;47.210;8.618;2023-04-25T13:01:56;93834.88;;;21.79;28.11
70902;BME280;58548;47.210;8.618;2023-04-25T13:04:22;93848.44;;;21.83;28.38
70902;BME280;58548;47.210;8.618;2023-04-25T13:06:50;93842.84;;;21.84;28.59
70902;BME280;58548;47.210;8.618;2023-04-25T13:09:21;93845.25;;;21.86;28.08
70902;BME280;58548;47.210;8.618;2023-04-25T13:11:49;93816.25;;;21.64;27.62
70902;BME280;58548;47.210;8.618;2023-04-25T13:14:15;93752.16;;;21.08;27.92